sensor_id;sensor_type;location;lat;lon;timestamp;pressure;altitude;pressure_sealevel;temperature;humidity
33625;BME280;19962;47.820;1.930;2023-04-25T00:01:18;100163.38;;;14.26;75.98
33625;BME280;19962;47.820;1.930;2023-04-25T00:03:44;100166.41;;;14.25;76.07
33625;BME280;19962;47.820;1.930;2023-04-25T00:06:13;100160.06;;;14.24;76.02
33625;BME280;19962;47.820;1.930;2023-04-25T00:08:39;100161.63;;;14.15;76.42
33625;BME280;19962;47.820;1.930;2023-04-25T00:11:06;100152.66;;;14.03;77.01
33625;BME280;19962;47.820;1.930;2023-04-25T00:13:32;100151.34;;;14.11;76.75
33625;BME280;19962;47.820;1.930;2023-04-25T00:15:58;100141.00;;;14.23;76.45
33625;BME280;19962;47.820;1.930;2023-04-25T00:18:24;100135.44;;;14.18;76.20
33625;BME280;19962;47.820;1.930;2023-04-25T00:20:50;100129.84;;;14.08;76.84
33625;BME280;19962;47.820;1.930;2023-04-25T00:23:17;100121.84;;;14.11;76.49
33625;BME280;19962;47.820;1.930;2023-04-25T00:25:44;100132.59;;;14.08;76.52
33625;BME280;19962;47.820;1.930;2023-04-25T00:28:12;100130.34;;;14.05;76.88
33625;BME280;19962;47.820;1.930;2023-04-25T00:30:39;100133.69;;;14.12;76.64
33625;BME280;19962;47.820;1.930;2023-04-25T00:33:05;100133.19;;;14.15;76.58
33625;BME280;19962;47.820;1.930;2023-04-25T00:35:32;100130.69;;;14.13;76.59
33625;BME280;19962;47.820;1.930;2023-04-25T00:37:58;100132.88;;;14.11;76.61
33625;BME280;19962;47.820;1.930;2023-04-25T00:40:24;100139.09;;;13.97;76.96
33625;BME280;19962;47.820;1.930;2023-04-25T00:42:52;100135.50;;;13.96;77.10
33625;BME280;19962;47.820;1.930;2023-04-25T00:45:19;100141.81;;;13.92;77.28
33625;BME280;19962;47.820;1.930;2023-04-25T00:47:46;100136.25;;;13.87;77.45
33625;BME280;19962;47.820;1.930;2023-04-25T00:50:13;100135.72;;;13.90;77.10
33625;BME280;19962;47.820;1.930;2023-04-25T00:52:41;100138.41;;;13.85;77.45
33625;BME280;19962;47.820;1.930;2023-04-25T00:55:09;100143.97;;;13.90;77.26
33625;BME280;19962;47.820;1.930;2023-04-25T00:57:36;100145.41;;;13.92;76.83
33625;BME280;19962;47.820;1.930;2023-04-25T01:00:03;100148.97;;;13.93;76.90
33625;BME280;19962;47.820;1.930;2023-04-25T01:02:32;100141.19;;;13.85;77.23
33625;BME280;19962;47.820;1.930;2023-04-25T01:04:59;100146.38;;;13.81;77.35
33625;BME280;19962;47.820;1.930;2023-04-25T01:07:25;100145.03;;;13.84;77.09
33625;BME280;19962;47.820;1.930;2023-04-25T01:09:52;100138.72;;;13.83;76.96
33625;BME280;19962;47.820;1.930;2023-04-25T01:12:18;100140.31;;;13.79;77.21
33625;BME280;19962;47.820;1.930;2023-04-25T01:14:45;100149.41;;;13.80;77.16
33625;BME280;19962;47.820;1.930;2023-04-25T01:17:12;100134.47;;;13.76;77.26
33625;BME280;19962;47.820;1.930;2023-04-25T01:19:38;100143.59;;;13.76;77.29
33625;BME280;19962;47.820;1.930;2023-04-25T01:22:05;100149.34;;;13.75;77.39
33625;BME280;19962;47.820;1.930;2023-04-25T01:24:34;100144.91;;;13.69;77.56
33625;BME280;19962;47.820;1.930;2023-04-25T01:27:01;100154.88;;;13.75;77.30
33625;BME280;19962;47.820;1.930;2023-04-25T01:29:28;100146.03;;;13.73;77.28
33625;BME280;19962;47.820;1.930;2023-04-25T01:31:54;100154.88;;;13.75;76.94
33625;BME280;19962;47.820;1.930;2023-04-25T01:34:20;100142.19;;;13.74;77.01
33625;BME280;19962;47.820;1.930;2023-04-25T01:36:50;100154.53;;;13.66;77.16
33625;BME280;19962;47.820;1.930;2023-04-25T01:39:17;100146.97;;;13.57;77.59
33625;BME280;19962;47.820;1.930;2023-04-25T01:41:45;100155.75;;;13.54;77.84
33625;BME280;19962;47.820;1.930;2023-04-25T01:44:11;100150.44;;;13.47;78.02
33625;BME280;19962;47.820;1.930;2023-04-25T01:46:37;100161.09;;;13.39;78.39
33625;BME280;19962;47.820;1.930;2023-04-25T01:49:03;100159.19;;;13.39;78.09
33625;BME280;19962;47.820;1.930;2023-04-25T01:51:30;100159.22;;;13.44;78.18
33625;BME280;19962;47.820;1.930;2023-04-25T01:53:57;100156.78;;;13.48;77.58
33625;BME280;19962;47.820;1.930;2023-04-25T01:56:24;100152.31;;;13.42;77.91
33625;BME280;19962;47.820;1.930;2023-04-25T01:58:51;100149.66;;;13.52;77.58
33625;BME280;19962;47.820;1.930;2023-04-25T02:01:17;100160.06;;;13.45;77.33
33625;BME280;19962;47.820;1.930;2023-04-25T02:03:43;100156.03;;;13.31;77.56
33625;BME280;19962;47.820;1.930;2023-04-25T02:06:09;100156.81;;;13.26;77.92
33625;BME280;19962;47.820;1.930;2023-04-25T02:08:35;100159.31;;;13.28;77.89
33625;BME280;19962;47.820;1.930;2023-04-25T02:11:03;100153.81;;;13.28;77.76
33625;BME280;19962;47.820;1.930;2023-04-25T02:13:29;100156.75;;;13.21;77.67
33625;BME280;19962;47.820;1.930;2023-04-25T02:15:55;100158.66;;;13.21;77.59
33625;BME280;19962;47.820;1.930;2023-04-25T02:18:21;100162.41;;;13.10;77.77
33625;BME280;19962;47.820;1.930;2023-04-25T02:20:48;100162.66;;;13.08;77.81
33625;BME280;19962;47.820;1.930;2023-04-25T02:23:14;100163.25;;;12.94;78.36
33625;BME280;19962;47.820;1.930;2023-04-25T02:25:41;100158.41;;;13.01;78.27
33625;BME280;19962;47.820;1.930;2023-04-25T02:28:07;100156.38;;;12.96;78.14
33625;BME280;19962;47.820;1.930;2023-04-25T02:30:33;100165.59;;;13.02;78.15
33625;BME280;19962;47.820;1.930;2023-04-25T02:33:01;100159.25;;;13.01;77.86
33625;BME280;19962;47.820;1.930;2023-04-25T02:35:27;100159.56;;;13.05;77.52
33625;BME280;19962;47.820;1.930;2023-04-25T02:37:53;100157.66;;;12.89;78.15
33625;BME280;19962;47.820;1.930;2023-04-25T02:40:19;100165.16;;;12.93;77.61
33625;BME280;19962;47.820;1.930;2023-04-25T02:42:45;100173.09;;;12.90;77.91
33625;BME280;19962;47.820;1.930;2023-04-25T02:45:12;100162.94;;;12.90;77.69
33625;BME280;19962;47.820;1.930;2023-04-25T02:47:38;100163.94;;;12.84;77.91
33625;BME280;19962;47.820;1.930;2023-04-25T02:50:04;100171.13;;;12.69;78.09
33625;BME280;19962;47.820;1.930;2023-04-25T02:52:31;100172.97;;;12.80;77.99
33625;BME280;19962;47.820;1.930;2023-04-25T02:54:57;100179.16;;;12.92;77.50
33625;BME280;19962;47.820;1.930;2023-04-25T02:57:23;100171.69;;;12.87;77.06
33625;BME280;19962;47.820;1.930;2023-04-25T02:59:49;100172.44;;;12.83;77.26
33625;BME280;19962;47.820;1.930;2023-04-25T03:02:15;100171.94;;;12.86;76.99
33625;BME280;19962;47.820;1.930;2023-04-25T03:04:41;100176.53;;;12.80;77.30
33625;BME280;19962;47.820;1.930;2023-04-25T03:07:07;100169.97;;;12.81;76.83
33625;BME280;19962;47.820;1.930;2023-04-25T03:09:34;100171.63;;;12.82;76.84
33625;BME280;19962;47.820;1.930;2023-04-25T03:12:00;100174.31;;;12.77;76.66
33625;BME280;19962;47.820;1.930;2023-04-25T03:14:27;100163.97;;;12.68;76.88
33625;BME280;19962;47.820;1.930;2023-04-25T03:16:53;100161.16;;;12.63;77.03
33625;BME280;19962;47.820;1.930;2023-04-25T03:19:19;100167.63;;;12.73;76.91
33625;BME280;19962;47.820;1.930;2023-04-25T03:21:46;100166.72;;;12.68;76.80
33625;BME280;19962;47.820;1.930;2023-04-25T03:24:12;100180.31;;;12.74;76.75
33625;BME280;19962;47.820;1.930;2023-04-25T03:26:38;100174.97;;;12.68;76.54
33625;BME280;19962;47.820;1.930;2023-04-25T03:29:04;100178.81;;;12.67;76.41
33625;BME280;19962;47.820;1.930;2023-04-25T03:31:30;100185.53;;;12.54;76.69
33625;BME280;19962;47.820;1.930;2023-04-25T03:33:56;100184.75;;;12.59;76.64
33625;BME280;19962;47.820;1.930;2023-04-25T03:36:22;100187.19;;;12.55;76.34
33625;BME280;19962;47.820;1.930;2023-04-25T03:38:49;100193.50;;;12.56;76.67
33625;BME280;19962;47.820;1.930;2023-04-25T03:41:15;100188.00;;;12.56;76.38
33625;BME280;19962;47.820;1.930;2023-04-25T03:43:41;100190.50;;;12.57;76.21
33625;BME280;19962;47.820;1.930;2023-04-25T03:46:08;100193.50;;;12.56;76.16
33625;BME280;19962;47.820;1.930;2023-04-25T03:48:34;100193.00;;;12.59;76.11
33625;BME280;19962;47.820;1.930;2023-04-25T03:51:00;100195.50;;;12.60;75.46
33625;BME280;19962;47.820;1.930;2023-04-25T03:53:26;100190.59;;;12.46;75.82
33625;BME280;19962;47.820;1.930;2023-04-25T03:55:52;100190.66;;;12.51;75.88
33625;BME280;19962;47.820;1.930;2023-04-25T03:58:18;100186.34;;;12.55;75.46
33625;BME280;19962;47.820;1.930;2023-04-25T04:00:44;100191.75;;;12.50;75.51
33625;BME280;19962;47.820;1.930;2023-04-25T04:03:10;100189.66;;;12.40;75.94
33625;BME280;19962;47.820;1.930;2023-04-25T04:05:37;100190.00;;;12.27;76.18
33625;BME280;19962;47.820;1.930;2023-04-25T04:08:03;100184.19;;;12.24;76.28
33625;BME280;19962;47.820;1.930;2023-04-25T04:10:29;100185.84;;;12.25;76.12
33625;BME280;19962;47.820;1.930;2023-04-25T04:12:55;100194.38;;;12.23;76.25
33625;BME280;19962;47.820;1.930;2023-04-25T04:15:21;100200.75;;;12.29;76.07
33625;BME280;19962;47.820;1.930;2023-04-25T04:17:48;100194.00;;;12.03;76.45
33625;BME280;19962;47.820;1.930;2023-04-25T04:20:15;100189.03;;;12.17;76.20
33625;BME280;19962;47.820;1.930;2023-04-25T04:22:41;100198.78;;;12.08;76.04
33625;BME280;19962;47.820;1.930;2023-04-25T04:25:07;100200.81;;;12.01;76.46
33625;BME280;19962;47.820;1.930;2023-04-25T04:27:33;100199.44;;;12.15;75.97
33625;BME280;19962;47.820;1.930;2023-04-25T04:30:00;100197.75;;;12.14;76.10
33625;BME280;19962;47.820;1.930;2023-04-25T04:32:27;100206.31;;;11.84;76.67
33625;BME280;19962;47.820;1.930;2023-04-25T04:34:54;100209.94;;;11.73;77.50
33625;BME280;19962;47.820;1.930;2023-04-25T04:37:21;100212.00;;;11.66;77.63
33625;BME280;19962;47.820;1.930;2023-04-25T04:39:47;100223.09;;;11.71;77.38
33625;BME280;19962;47.820;1.930;2023-04-25T04:42:13;100218.06;;;11.68;77.26
33625;BME280;19962;47.820;1.930;2023-04-25T04:44:39;100221.94;;;11.84;77.13
33625;BME280;19962;47.820;1.930;2023-04-25T04:47:06;100212.31;;;11.98;76.60
33625;BME280;19962;47.820;1.930;2023-04-25T04:49:32;100218.97;;;12.02;75.96
33625;BME280;19962;47.820;1.930;2023-04-25T04:51:59;100223.84;;;12.11;75.91
33625;BME280;19962;47.820;1.930;2023-04-25T04:54:26;100230.38;;;12.22;75.30
33625;BME280;19962;47.820;1.930;2023-04-25T04:56:53;100240.84;;;12.25;74.83
33625;BME280;19962;47.820;1.930;2023-04-25T04:59:19;100236.59;;;12.34;74.85
33625;BME280;19962;47.820;1.930;2023-04-25T05:01:45;100239.72;;;12.37;74.50
33625;BME280;19962;47.820;1.930;2023-04-25T05:04:12;100245.22;;;12.37;74.26
33625;BME280;19962;47.820;1.930;2023-04-25T05:06:38;100243.25;;;12.21;74.71
33625;BME280;19962;47.820;1.930;2023-04-25T05:09:04;100250.69;;;12.21;75.06
33625;BME280;19962;47.820;1.930;2023-04-25T05:11:31;100239.78;;;12.26;74.82
33625;BME280;19962;47.820;1.930;2023-04-25T05:13:57;100246.47;;;12.30;74.53
33625;BME280;19962;47.820;1.930;2023-04-25T05:16:23;100244.84;;;12.34;74.58
33625;BME280;19962;47.820;1.930;2023-04-25T05:18:49;100247.03;;;12.32;74.43
33625;BME280;19962;47.820;1.930;2023-04-25T05:21:15;100256.88;;;12.28;74.37
33625;BME280;19962;47.820;1.930;2023-04-25T05:23:42;100264.19;;;12.22;74.67
33625;BME280;19962;47.820;1.930;2023-04-25T05:26:08;100261.19;;;12.24;74.68
33625;BME280;19962;47.820;1.930;2023-04-25T05:28:40;100268.25;;;12.20;74.63
33625;BME280;19962;47.820;1.930;2023-04-25T05:31:07;100278.69;;;12.18;74.44
33625;BME280;19962;47.820;1.930;2023-04-25T05:33:33;100267.63;;;12.29;74.41
33625;BME280;19962;47.820;1.930;2023-04-25T05:35:59;100270.19;;;12.19;74.70
33625;BME280;19962;47.820;1.930;2023-04-25T05:38:25;100278.84;;;12.11;74.96
33625;BME280;19962;47.820;1.930;2023-04-25T05:40:51;100273.75;;;12.20;74.83
33625;BME280;19962;47.820;1.930;2023-04-25T05:43:17;100276.72;;;12.30;74.55
33625;BME280;19962;47.820;1.930;2023-04-25T05:45:43;100286.28;;;12.27;74.50
33625;BME280;19962;47.820;1.930;2023-04-25T05:48:10;100300.63;;;12.29;74.54
33625;BME280;19962;47.820;1.930;2023-04-25T05:50:36;100300.22;;;12.37;74.32
33625;BME280;19962;47.820;1.930;2023-04-25T05:53:02;100295.47;;;12.33;74.49
33625;BME280;19962;47.820;1.930;2023-04-25T05:55:28;100294.97;;;12.36;74.58
33625;BME280;19962;47.820;1.930;2023-04-25T05:57:54;100303.72;;;12.33;74.81
33625;BME280;19962;47.820;1.930;2023-04-25T06:00:20;100296.38;;;12.38;74.40
33625;BME280;19962;47.820;1.930;2023-04-25T06:02:48;100299.88;;;12.34;74.54
33625;BME280;19962;47.820;1.930;2023-04-25T06:05:14;100296.63;;;12.37;74.58
33625;BME280;19962;47.820;1.930;2023-04-25T06:07:40;100303.63;;;12.28;75.11
33625;BME280;19962;47.820;1.930;2023-04-25T06:10:07;100302.03;;;12.32;75.30
33625;BME280;19962;47.820;1.930;2023-04-25T06:12:33;100295.47;;;12.33;75.32
33625;BME280;19962;47.820;1.930;2023-04-25T06:15:00;100306.13;;;12.29;75.36
33625;BME280;19962;47.820;1.930;2023-04-25T06:17:26;100311.22;;;12.21;76.09
33625;BME280;19962;47.820;1.930;2023-04-25T06:19:52;100310.78;;;12.29;76.68
33625;BME280;19962;47.820;1.930;2023-04-25T06:22:19;100316.13;;;12.35;76.58
33625;BME280;19962;47.820;1.930;2023-04-25T06:24:45;100311.66;;;12.46;75.98
33625;BME280;19962;47.820;1.930;2023-04-25T06:27:11;100314.84;;;12.54;75.95
33625;BME280;19962;47.820;1.930;2023-04-25T06:29:37;100320.75;;;12.63;75.83
33625;BME280;19962;47.820;1.930;2023-04-25T06:32:04;100320.34;;;12.71;75.59
33625;BME280;19962;47.820;1.930;2023-04-25T06:34:30;100324.94;;;12.82;75.30
33625;BME280;19962;47.820;1.930;2023-04-25T06:36:56;100317.44;;;12.94;74.71
33625;BME280;19962;47.820;1.930;2023-04-25T06:39:22;100326.53;;;12.94;74.91
33625;BME280;19962;47.820;1.930;2023-04-25T06:41:51;100323.28;;;12.97;75.02
33625;BME280;19962;47.820;1.930;2023-04-25T06:44:19;100322.53;;;13.18;74.96
33625;BME280;19962;47.820;1.930;2023-04-25T06:46:45;100329.94;;;13.18;75.35
33625;BME280;19962;47.820;1.930;2023-04-25T06:49:11;100321.25;;;13.26;74.60
33625;BME280;19962;47.820;1.930;2023-04-25T06:51:37;100322.94;;;13.27;74.61
33625;BME280;19962;47.820;1.930;2023-04-25T06:54:03;100319.75;;;13.35;74.03
33625;BME280;19962;47.820;1.930;2023-04-25T06:56:30;100332.34;;;13.31;73.98
33625;BME280;19962;47.820;1.930;2023-04-25T06:58:57;100323.44;;;13.24;73.93
33625;BME280;19962;47.820;1.930;2023-04-25T07:01:23;100324.00;;;13.26;74.40
33625;BME280;19962;47.820;1.930;2023-04-25T07:03:49;100327.78;;;13.20;74.30
33625;BME280;19962;47.820;1.930;2023-04-25T07:06:15;100327.94;;;13.30;73.92
33625;BME280;19962;47.820;1.930;2023-04-25T07:08:41;100332.94;;;13.33;73.76
33625;BME280;19962;47.820;1.930;2023-04-25T07:11:07;100338.28;;;13.39;73.84
33625;BME280;19962;47.820;1.930;2023-04-25T07:13:33;100339.75;;;13.47;73.59
33625;BME280;19962;47.820;1.930;2023-04-25T07:16:00;100341.53;;;13.36;74.03
33625;BME280;19962;47.820;1.930;2023-04-25T07:18:26;100337.50;;;13.44;73.76
33625;BME280;19962;47.820;1.930;2023-04-25T07:20:52;100339.16;;;13.61;73.41
33625;BME280;19962;47.820;1.930;2023-04-25T07:23:18;100339.97;;;13.62;72.92
33625;BME280;19962;47.820;1.930;2023-04-25T07:25:44;100346.06;;;13.64;73.12
33625;BME280;19962;47.820;1.930;2023-04-25T07:28:11;100348.16;;;13.57;73.49
33625;BME280;19962;47.820;1.930;2023-04-25T07:30:37;100340.88;;;13.67;73.03
33625;BME280;19962;47.820;1.930;2023-04-25T07:33:03;100348.28;;;13.67;73.46
33625;BME280;19962;47.820;1.930;2023-04-25T07:35:29;100347.13;;;13.79;72.88
33625;BME280;19962;47.820;1.930;2023-04-25T07:37:55;100351.84;;;13.84;72.80
33625;BME280;19962;47.820;1.930;2023-04-25T07:40:21;100348.75;;;13.59;73.34
33625;BME280;19962;47.820;1.930;2023-04-25T07:42:48;100340.69;;;13.52;74.47
33625;BME280;19962;47.820;1.930;2023-04-25T07:45:14;100344.38;;;13.63;74.81
33625;BME280;19962;47.820;1.930;2023-04-25T07:47:41;100357.09;;;13.64;74.43
33625;BME280;19962;47.820;1.930;2023-04-25T07:50:07;100361.94;;;13.57;74.89
33625;BME280;19962;47.820;1.930;2023-04-25T07:52:34;100355.41;;;13.63;74.02
33625;BME280;19962;47.820;1.930;2023-04-25T07:55:00;100359.19;;;13.78;74.24
33625;BME280;19962;47.820;1.930;2023-04-25T07:57:26;100359.72;;;13.97;73.51
33625;BME280;19962;47.820;1.930;2023-04-25T07:59:52;100367.69;;;14.15;72.17
33625;BME280;19962;47.820;1.930;2023-04-25T08:02:18;100373.38;;;14.08;72.29
33625;BME280;19962;47.820;1.930;2023-04-25T08:04:44;100373.72;;;13.90;72.23
33625;BME280;19962;47.820;1.930;2023-04-25T08:07:10;100370.94;;;13.69;73.23
33625;BME280;19962;47.820;1.930;2023-04-25T08:09:36;100381.38;;;13.67;73.12
33625;BME280;19962;47.820;1.930;2023-04-25T08:12:03;100379.72;;;13.66;72.94
33625;BME280;19962;47.820;1.930;2023-04-25T08:14:30;100385.84;;;13.68;72.96
33625;BME280;19962;47.820;1.930;2023-04-25T08:17:02;100402.19;;;13.58;73.12
33625;BME280;19962;47.820;1.930;2023-04-25T08:19:29;100397.41;;;13.48;73.70
33625;BME280;19962;47.820;1.930;2023-04-25T08:21:56;100409.13;;;13.60;73.24
33625;BME280;19962;47.820;1.930;2023-04-25T08:24:23;100400.75;;;13.72;73.31
33625;BME280;19962;47.820;1.930;2023-04-25T08:26:49;100404.41;;;13.77;73.00
33625;BME280;19962;47.820;1.930;2023-04-25T08:29:16;100413.47;;;13.94;72.36
33625;BME280;19962;47.820;1.930;2023-04-25T08:31:42;100409.97;;;13.99;72.46
33625;BME280;19962;47.820;1.930;2023-04-25T08:34:08;100418.75;;;13.96;72.53
33625;BME280;19962;47.820;1.930;2023-04-25T08:36:34;100424.50;;;13.94;72.73
33625;BME280;19962;47.820;1.930;2023-04-25T08:39:00;100432.53;;;13.96;72.65
33625;BME280;19962;47.820;1.930;2023-04-25T08:41:27;100426.97;;;13.91;72.96
33625;BME280;19962;47.820;1.930;2023-04-25T08:43:54;100432.41;;;13.86;72.64
33625;BME280;19962;47.820;1.930;2023-04-25T08:46:22;100445.47;;;13.74;73.13
33625;BME280;19962;47.820;1.930;2023-04-25T08:48:49;100447.25;;;13.85;73.02
33625;BME280;19962;47.820;1.930;2023-04-25T08:51:26;100447.25;;;14.01;72.26
33625;BME280;19962;47.820;1.930;2023-04-25T08:53:54;100459.00;;;13.75;71.65
33625;BME280;19962;47.820;1.930;2023-04-25T08:56:20;100454.22;;;13.71;71.64
33625;BME280;19962;47.820;1.930;2023-04-25T08:58:51;100463.69;;;13.58;72.84
33625;BME280;19962;47.820;1.930;2023-04-25T09:01:18;100450.31;;;13.67;72.53
33625;BME280;19962;47.820;1.930;2023-04-25T09:03:45;100451.03;;;13.79;71.94
33625;BME280;19962;47.820;1.930;2023-04-25T09:06:13;100456.97;;;13.71;72.35
33625;BME280;19962;47.820;1.930;2023-04-25T09:08:39;100449.22;;;14.06;71.28
33625;BME280;19962;47.820;1.930;2023-04-25T09:11:08;100457.06;;;14.14;70.80
33625;BME280;19962;47.820;1.930;2023-04-25T09:13:34;100455.88;;;14.26;70.75
33625;BME280;19962;47.820;1.930;2023-04-25T09:16:00;100457.59;;;14.54;70.10
33625;BME280;19962;47.820;1.930;2023-04-25T09:18:29;100463.69;;;14.56;69.15
33625;BME280;19962;47.820;1.930;2023-04-25T09:20:58;100469.81;;;14.58;68.83
33625;BME280;19962;47.820;1.930;2023-04-25T09:23:30;100472.63;;;14.63;68.13
33625;BME280;19962;47.820;1.930;2023-04-25T09:26:04;100467.91;;;14.63;68.45
33625;BME280;19962;47.820;1.930;2023-04-25T09:28:32;100462.38;;;14.63;67.89
33625;BME280;19962;47.820;1.930;2023-04-25T09:30:58;100467.00;;;14.79;67.56
33625;BME280;19962;47.820;1.930;2023-04-25T09:33:32;100465.78;;;14.70;65.89
33625;BME280;19962;47.820;1.930;2023-04-25T09:38:31;100480.31;;;14.61;66.60
33625;BME280;19962;47.820;1.930;2023-04-25T09:40:57;100476.59;;;14.72;66.81
33625;BME280;19962;47.820;1.930;2023-04-25T09:43:24;100478.34;;;14.83;66.15
33625;BME280;19962;47.820;1.930;2023-04-25T09:45:54;100477.84;;;14.86;65.56
33625;BME280;19962;47.820;1.930;2023-04-25T09:48:26;100482.06;;;14.67;65.67
33625;BME280;19962;47.820;1.930;2023-04-25T09:51:08;100484.59;;;14.09;64.64
33625;BME280;19962;47.820;1.930;2023-04-25T09:53:37;100482.91;;;14.46;66.48
33625;BME280;19962;47.820;1.930;2023-04-25T09:56:08;100485.28;;;14.37;65.80
33625;BME280;19962;47.820;1.930;2023-04-25T09:58:36;100485.84;;;14.39;66.60
33625;BME280;19962;47.820;1.930;2023-04-25T10:01:07;100486.69;;;14.40;65.12
33625;BME280;19962;47.820;1.930;2023-04-25T10:03:43;100489.97;;;14.37;66.09
33625;BME280;19962;47.820;1.930;2023-04-25T10:06:14;100482.13;;;14.50;65.60
33625;BME280;19962;47.820;1.930;2023-04-25T10:08:44;100491.06;;;14.36;64.07
33625;BME280;19962;47.820;1.930;2023-04-25T10:11:11;100497.00;;;14.28;65.32
33625;BME280;19962;47.820;1.930;2023-04-25T10:13:40;100497.41;;;14.58;65.23
33625;BME280;19962;47.820;1.930;2023-04-25T10:16:07;100496.69;;;14.67;64.48
33625;BME280;19962;47.820;1.930;2023-04-25T10:18:33;100494.97;;;14.40;64.77
33625;BME280;19962;47.820;1.930;2023-04-25T10:21:01;100495.72;;;13.97;65.25
33625;BME280;19962;47.820;1.930;2023-04-25T10:23:30;100499.00;;;14.16;64.96
33625;BME280;19962;47.820;1.930;2023-04-25T10:25:57;100489.97;;;14.37;65.02
33625;BME280;19962;47.820;1.930;2023-04-25T10:28:24;100486.94;;;14.60;64.44
33625;BME280;19962;47.820;1.930;2023-04-25T10:30:58;100486.59;;;14.78;63.98
33625;BME280;19962;47.820;1.930;2023-04-25T10:33:37;100502.41;;;14.61;63.52
33625;BME280;19962;47.820;1.930;2023-04-25T10:36:17;100503.25;;;14.61;63.90
33625;BME280;19962;47.820;1.930;2023-04-25T10:38:45;100505.88;;;14.73;63.50
33625;BME280;19962;47.820;1.930;2023-04-25T10:41:12;100500.13;;;14.79;63.10
33625;BME280;19962;47.820;1.930;2023-04-25T10:43:43;100501.59;;;14.87;62.73
33625;BME280;19962;47.820;1.930;2023-04-25T10:46:21;100497.69;;;14.83;61.86
33625;BME280;19962;47.820;1.930;2023-04-25T10:48:50;100500.09;;;15.01;61.69
33625;BME280;19962;47.820;1.930;2023-04-25T10:59:15;100503.75;;;14.58;61.14
33625;BME280;19962;47.820;1.930;2023-04-25T11:01:46;100499.22;;;14.26;60.85
33625;BME280;19962;47.820;1.930;2023-04-25T11:04:29;100495.84;;;14.24;61.11
33625;BME280;19962;47.820;1.930;2023-04-25T11:09:36;100502.09;;;14.57;61.16
33625;BME280;19962;47.820;1.930;2023-04-25T11:12:04;100501.28;;;14.57;61.21
33625;BME280;19962;47.820;1.930;2023-04-25T11:14:31;100504.34;;;14.60;61.52
33625;BME280;19962;47.820;1.930;2023-04-25T11:16:58;100506.84;;;14.62;61.63
33625;BME280;19962;47.820;1.930;2023-04-25T11:19:25;100504.72;;;14.69;61.19
33625;BME280;19962;47.820;1.930;2023-04-25T11:21:55;100498.41;;;14.52;61.50
33625;BME280;19962;47.820;1.930;2023-04-25T11:24:33;100508.69;;;14.78;61.35
33625;BME280;19962;47.820;1.930;2023-04-25T11:27:05;100500.59;;;14.93;60.43
33625;BME280;19962;47.820;1.930;2023-04-25T11:29:33;100502.84;;;15.01;60.24
33625;BME280;19962;47.820;1.930;2023-04-25T11:32:01;100501.00;;;15.06;60.33
33625;BME280;19962;47.820;1.930;2023-04-25T11:34:28;100504.13;;;15.15;60.28
33625;BME280;19962;47.820;1.930;2023-04-25T11:36:59;100502.50;;;15.19;59.31
33625;BME280;19962;47.820;1.930;2023-04-25T11:39:26;100496.91;;;15.14;59.16
33625;BME280;19962;47.820;1.930;2023-04-25T11:41:53;100494.94;;;15.09;59.16
33625;BME280;19962;47.820;1.930;2023-04-25T11:44:20;100497.16;;;15.34;59.02
33625;BME280;19962;47.820;1.930;2023-04-25T11:46:47;100493.47;;;15.55;58.43
33625;BME280;19962;47.820;1.930;2023-04-25T11:49:14;100506.19;;;15.29;58.11
33625;BME280;19962;47.820;1.930;2023-04-25T11:51:48;100497.72;;;15.36;56.97
33625;BME280;19962;47.820;1.930;2023-04-25T11:54:15;100493.38;;;15.18;58.59
33625;BME280;19962;47.820;1.930;2023-04-25T11:56:45;100495.00;;;15.41;58.13
33625;BME280;19962;47.820;1.930;2023-04-25T11:59:11;100497.06;;;15.55;57.43
33625;BME280;19962;47.820;1.930;2023-04-25T12:01:39;100493.41;;;15.50;56.25
33625;BME280;19962;47.820;1.930;2023-04-25T12:04:16;100486.53;;;15.52;56.64
33625;BME280;19962;47.820;1.930;2023-04-25T12:06:44;100481.38;;;15.66;55.83
33625;BME280;19962;47.820;1.930;2023-04-25T12:09:15;100482.00;;;15.41;55.46
33625;BME280;19962;47.820;1.930;2023-04-25T12:11:54;100488.03;;;15.65;55.50
33625;BME280;19962;47.820;1.930;2023-04-25T12:14:32;100479.38;;;15.93;53.80
33625;BME280;19962;47.820;1.930;2023-04-25T12:17:00;100476.75;;;16.13;53.85
33625;BME280;19962;47.820;1.930;2023-04-25T12:19:31;100485.81;;;16.03;53.29
33625;BME280;19962;47.820;1.930;2023-04-25T12:22:00;100480.97;;;15.84;54.10
33625;BME280;19962;47.820;1.930;2023-04-25T12:24:27;100491.91;;;15.64;54.10
33625;BME280;19962;47.820;1.930;2023-04-25T12:27:02;100497.00;;;15.82;54.03
33625;BME280;19962;47.820;1.930;2023-04-25T12:29:30;100488.53;;;15.98;54.06
33625;BME280;19962;47.820;1.930;2023-04-25T12:31:57;100485.53;;;16.05;53.73
33625;BME280;19962;47.820;1.930;2023-04-25T12:34:23;100491.03;;;15.95;53.69
33625;BME280;19962;47.820;1.930;2023-04-25T12:36:51;100501.06;;;15.74;53.76
33625;BME280;19962;47.820;1.930;2023-04-25T12:39:24;100501.44;;;15.51;52.81
33625;BME280;19962;47.820;1.930;2023-04-25T12:41:53;100499.25;;;15.27;54.65
33625;BME280;19962;47.820;1.930;2023-04-25T12:44:20;100501.25;;;15.31;55.18
33625;BME280;19962;47.820;1.930;2023-04-25T12:46:47;100511.53;;;15.36;54.85
33625;BME280;19962;47.820;1.930;2023-04-25T12:49:14;100510.34;;;15.32;55.11
33625;BME280;19962;47.820;1.930;2023-04-25T12:51:40;100502.69;;;15.12;55.13
33625;BME280;19962;47.820;1.930;2023-04-25T12:54:07;100503.97;;;15.00;55.34
33625;BME280;19962;47.820;1.930;2023-04-25T12:56:34;100504.59;;;15.07;55.41
33625;BME280;19962;47.820;1.930;2023-04-25T12:59:01;100509.91;;;15.13;55.74
33625;BME280;19962;47.820;1.930;2023-04-25T13:01:30;100512.06;;;15.33;55.23
33625;BME280;19962;47.820;1.930;2023-04-25T13:03:56;100504.81;;;15.53;55.34